DAL759 KTPA-KATL
Flight info
| Callsign | DAL759 |
|---|---|
| Flight time | 1h 1m |
| Altitude | 35000 |
| Route | BAYPO2 CAMJO LAIRI/N0449F340 LARZZ JJEDI4 |
| Aircraft | A321/M-SDE3FGHIRWY/LB1 |
Departure
| Time | 2026-05-03 23:09 |
|---|---|
| Airport | Tampa International Airport (KTPA) |
Arrival
| Time | 2026-05-04 00:10 |
|---|---|
| Airport | Hartsfield Jackson Atlanta International Airport (KATL) |
| Time | Latitude | Longitude | Altitude | Speed | Heading |
|---|---|---|---|---|---|
| 2026-05-03 22:43 | 27.98079 | -82.53886 | 44 ft | 0 kts | 92° |
| 2026-05-03 22:59 | 27.98079 | -82.53888 | 43 ft | 2 kts | 92° |
| 2026-05-03 22:59 | 27.98080 | -82.53918 | 44 ft | 4 kts | 92° |
| 2026-05-03 22:59 | 27.98081 | -82.53948 | 46 ft | 4 kts | 92° |
| 2026-05-03 23:00 | 27.98081 | -82.53957 | 47 ft | 1 kts | 92° |
| 2026-05-03 23:04 | 27.98071 | -82.53949 | 46 ft | 3 kts | 163° |
| 2026-05-03 23:04 | 27.98036 | -82.53951 | 46 ft | 10 kts | 187° |
| 2026-05-03 23:04 | 27.97940 | -82.53964 | 46 ft | 16 kts | 187° |
| 2026-05-03 23:04 | 27.97836 | -82.53976 | 45 ft | 15 kts | 182° |
| 2026-05-03 23:05 | 27.97710 | -82.53980 | 46 ft | 20 kts | 181° |
| 2026-05-03 23:05 | 27.97611 | -82.53991 | 47 ft | 10 kts | 213° |
| 2026-05-03 23:05 | 27.97575 | -82.54049 | 47 ft | 9 kts | 224° |
| 2026-05-03 23:05 | 27.97500 | -82.54071 | 47 ft | 13 kts | 182° |
| 2026-05-03 23:06 | 27.97404 | -82.54075 | 48 ft | 18 kts | 182° |
| 2026-05-03 23:06 | 27.97247 | -82.54081 | 48 ft | 27 kts | 182° |
| 2026-05-03 23:06 | 27.97058 | -82.54088 | 46 ft | 26 kts | 181° |
| 2026-05-03 23:06 | 27.96881 | -82.54093 | 49 ft | 25 kts | 181° |
| 2026-05-03 23:07 | 27.96720 | -82.54099 | 49 ft | 21 kts | 182° |
| 2026-05-03 23:07 | 27.96581 | -82.54104 | 49 ft | 19 kts | 181° |
| 2026-05-03 23:07 | 27.96449 | -82.54107 | 48 ft | 19 kts | 181° |
| 2026-05-03 23:07 | 27.96356 | -82.54124 | 47 ft | 11 kts | 219° |
| 2026-05-03 23:08 | 27.96346 | -82.54197 | 47 ft | 9 kts | 279° |
| 2026-05-03 23:08 | 27.96379 | -82.54231 | 47 ft | 4 kts | 357° |
| 2026-05-03 23:08 | 27.96453 | -82.54230 | 48 ft | 37 kts | 0° |
| 2026-05-03 23:08 | 27.97012 | -82.54213 | 53 ft | 120 kts | 1° |
| 2026-05-03 23:09 | 27.98076 | -82.54179 | 52 ft | 182 kts | 3° |
| 2026-05-03 23:09 | 27.99380 | -82.54152 | 785 ft | 186 kts | 1° |
| 2026-05-03 23:09 | 28.00674 | -82.54199 | 1752 ft | 186 kts | 358° |
| 2026-05-03 23:09 | 28.01942 | -82.54301 | 2737 ft | 184 kts | 358° |
| 2026-05-03 23:10 | 28.03229 | -82.54409 | 3482 ft | 189 kts | 358° |
| 2026-05-03 23:10 | 28.04591 | -82.54517 | 3684 ft | 206 kts | 358° |
| 2026-05-03 23:10 | 28.06082 | -82.54625 | 3817 ft | 224 kts | 358° |
| 2026-05-03 23:10 | 28.07718 | -82.54764 | 3933 ft | 248 kts | 356° |
| 2026-05-03 23:11 | 28.09493 | -82.54957 | 4399 ft | 261 kts | 355° |
| 2026-05-03 23:11 | 28.11320 | -82.55172 | 5078 ft | 266 kts | 354° |
| 2026-05-03 23:11 | 28.13172 | -82.55396 | 5815 ft | 269 kts | 353° |
| 2026-05-03 23:11 | 28.15045 | -82.55623 | 6500 ft | 273 kts | 352° |
| 2026-05-03 23:12 | 28.16947 | -82.55852 | 7147 ft | 277 kts | 352° |
| 2026-05-03 23:12 | 28.18874 | -82.56079 | 7801 ft | 281 kts | 351° |
| 2026-05-03 23:12 | 28.20802 | -82.56300 | 8435 ft | 284 kts | 351° |
| 2026-05-03 23:12 | 28.22779 | -82.56525 | 9097 ft | 287 kts | 350° |
| 2026-05-03 23:13 | 28.24780 | -82.56754 | 9761 ft | 290 kts | 349° |
| 2026-05-03 23:13 | 28.26808 | -82.56988 | 10294 ft | 298 kts | 348° |
| 2026-05-03 23:13 | 28.28946 | -82.57244 | 10419 ft | 320 kts | 349° |
| 2026-05-03 23:13 | 28.31228 | -82.57518 | 10535 ft | 340 kts | 349° |
| 2026-05-03 23:14 | 28.33652 | -82.57805 | 10661 ft | 360 kts | 349° |
| 2026-05-03 23:14 | 28.36208 | -82.58097 | 10780 ft | 378 kts | 350° |
| 2026-05-03 23:14 | 28.38896 | -82.58300 | 10936 ft | 395 kts | 353° |
| 2026-05-03 23:14 | 28.41671 | -82.58390 | 11338 ft | 402 kts | 355° |
| 2026-05-03 23:15 | 28.44487 | -82.58420 | 11815 ft | 407 kts | 355° |
| 2026-05-03 23:15 | 28.47333 | -82.58431 | 12308 ft | 411 kts | 355° |
| 2026-05-03 23:15 | 28.50207 | -82.58450 | 12792 ft | 415 kts | 354° |
| 2026-05-03 23:15 | 28.53070 | -82.58487 | 13252 ft | 419 kts | 354° |
| 2026-05-03 23:16 | 28.55997 | -82.58546 | 13722 ft | 422 kts | 354° |
| 2026-05-03 23:16 | 28.58945 | -82.58622 | 14155 ft | 426 kts | 353° |
| 2026-05-03 23:16 | 28.61921 | -82.58706 | 14575 ft | 429 kts | 353° |
| 2026-05-03 23:16 | 28.64918 | -82.58790 | 14988 ft | 433 kts | 353° |
| 2026-05-03 23:17 | 28.67924 | -82.58968 | 15400 ft | 432 kts | 348° |
| 2026-05-03 23:17 | 28.70917 | -82.59386 | 15832 ft | 434 kts | 347° |
| 2026-05-03 23:17 | 28.73925 | -82.59808 | 16244 ft | 437 kts | 347° |
| 2026-05-03 23:17 | 28.76955 | -82.60232 | 16670 ft | 440 kts | 347° |
| 2026-05-03 23:18 | 28.80003 | -82.60659 | 17068 ft | 443 kts | 347° |
| 2026-05-03 23:18 | 28.83033 | -82.61082 | 17450 ft | 446 kts | 347° |
| 2026-05-03 23:18 | 28.86125 | -82.61513 | 17839 ft | 449 kts | 347° |
| 2026-05-03 23:18 | 28.89242 | -82.61947 | 18226 ft | 452 kts | 347° |
| 2026-05-03 23:19 | 28.92377 | -82.62385 | 18577 ft | 455 kts | 347° |
| 2026-05-03 23:19 | 28.95529 | -82.62825 | 18928 ft | 457 kts | 347° |
| 2026-05-03 23:19 | 28.98695 | -82.63269 | 19277 ft | 459 kts | 347° |
| 2026-05-03 23:19 | 29.01873 | -82.63716 | 19625 ft | 461 kts | 347° |
| 2026-05-03 23:20 | 29.05067 | -82.64162 | 19991 ft | 463 kts | 347° |
| 2026-05-03 23:20 | 29.08276 | -82.64610 | 20343 ft | 465 kts | 347° |
| 2026-05-03 23:20 | 29.11453 | -82.65056 | 20693 ft | 467 kts | 346° |
| 2026-05-03 23:20 | 29.14683 | -82.65511 | 21040 ft | 469 kts | 346° |
| 2026-05-03 23:21 | 29.17931 | -82.65969 | 21390 ft | 471 kts | 346° |
| 2026-05-03 23:21 | 29.21190 | -82.66429 | 21735 ft | 473 kts | 346° |
| 2026-05-03 23:21 | 29.24463 | -82.66890 | 22069 ft | 475 kts | 346° |
| 2026-05-03 23:21 | 29.27752 | -82.67352 | 22393 ft | 477 kts | 346° |
| 2026-05-03 23:22 | 29.34366 | -82.68278 | 23059 ft | 481 kts | 346° |
| 2026-05-03 23:22 | 29.37695 | -82.68746 | 23363 ft | 483 kts | 346° |
| 2026-05-03 23:22 | 29.41040 | -82.69204 | 23661 ft | 487 kts | 348° |
| 2026-05-03 23:23 | 29.44452 | -82.69322 | 23913 ft | 494 kts | 353° |
| 2026-05-03 23:23 | 29.47853 | -82.69301 | 24180 ft | 496 kts | 353° |
| 2026-05-03 23:23 | 29.51313 | -82.69276 | 24447 ft | 498 kts | 353° |
| 2026-05-03 23:23 | 29.54784 | -82.69252 | 24687 ft | 500 kts | 353° |
| 2026-05-03 23:24 | 29.58266 | -82.69232 | 24951 ft | 501 kts | 353° |
| 2026-05-03 23:24 | 29.61751 | -82.69212 | 25300 ft | 500 kts | 353° |
| 2026-05-03 23:24 | 29.65225 | -82.69190 | 25660 ft | 499 kts | 353° |
| 2026-05-03 23:24 | 29.68699 | -82.69165 | 25981 ft | 499 kts | 353° |
| 2026-05-03 23:25 | 29.72174 | -82.69140 | 26314 ft | 499 kts | 353° |
| 2026-05-03 23:25 | 29.75640 | -82.69114 | 26647 ft | 498 kts | 353° |
| 2026-05-03 23:25 | 29.79060 | -82.69089 | 26975 ft | 498 kts | 353° |
| 2026-05-03 23:25 | 29.82523 | -82.69064 | 27303 ft | 497 kts | 353° |
| 2026-05-03 23:26 | 29.85983 | -82.69040 | 27646 ft | 497 kts | 353° |
| 2026-05-03 23:26 | 29.89438 | -82.69018 | 27977 ft | 496 kts | 352° |
| 2026-05-03 23:26 | 29.92891 | -82.68997 | 28329 ft | 496 kts | 352° |
| 2026-05-03 23:26 | 29.96346 | -82.68976 | 28639 ft | 496 kts | 352° |
| 2026-05-03 23:27 | 29.99795 | -82.68956 | 28961 ft | 496 kts | 352° |
| 2026-05-03 23:27 | 30.03245 | -82.68938 | 29280 ft | 495 kts | 352° |
| 2026-05-03 23:27 | 30.05524 | -82.68928 | 29488 ft | 495 kts | 352° |
| 2026-05-03 23:27 | 30.08969 | -82.68911 | 29808 ft | 495 kts | 352° |
| 2026-05-03 23:28 | 30.13524 | -82.68885 | 30214 ft | 494 kts | 352° |
| 2026-05-03 23:28 | 30.16964 | -82.68861 | 30481 ft | 494 kts | 352° |
| 2026-05-03 23:28 | 30.20393 | -82.68839 | 30800 ft | 493 kts | 352° |
| 2026-05-03 23:28 | 30.23821 | -82.68816 | 31127 ft | 492 kts | 352° |
| 2026-05-03 23:29 | 30.26088 | -82.68801 | 31322 ft | 491 kts | 352° |
| 2026-05-03 23:29 | 30.29503 | -82.68778 | 31611 ft | 491 kts | 351° |
| 2026-05-03 23:29 | 30.32915 | -82.68756 | 31919 ft | 490 kts | 351° |
| 2026-05-03 23:29 | 30.36321 | -82.68732 | 32202 ft | 489 kts | 351° |
| 2026-05-03 23:30 | 30.39724 | -82.68707 | 32481 ft | 489 kts | 351° |
| 2026-05-03 23:30 | 30.43120 | -82.68684 | 32781 ft | 488 kts | 351° |
| 2026-05-03 23:30 | 30.46514 | -82.68662 | 33060 ft | 487 kts | 351° |
| 2026-05-03 23:30 | 30.49902 | -82.68641 | 33339 ft | 487 kts | 351° |
| 2026-05-03 23:31 | 30.53294 | -82.68551 | 33619 ft | 489 kts | 353° |
| 2026-05-03 23:31 | 30.56697 | -82.68324 | 33897 ft | 491 kts | 355° |
| 2026-05-03 23:31 | 30.60105 | -82.67994 | 34148 ft | 492 kts | 356° |
| 2026-05-03 23:31 | 30.63513 | -82.67614 | 34203 ft | 492 kts | 356° |
| 2026-05-03 23:32 | 30.70329 | -82.66859 | 34204 ft | 491 kts | 355° |
| 2026-05-03 23:32 | 30.77073 | -82.66214 | 34506 ft | 489 kts | 355° |
| 2026-05-03 23:33 | 30.80463 | -82.65914 | 34732 ft | 488 kts | 354° |
| 2026-05-03 23:33 | 30.83847 | -82.65619 | 34967 ft | 487 kts | 354° |
| 2026-05-03 23:33 | 30.87230 | -82.65323 | 35130 ft | 489 kts | 354° |
| 2026-05-03 23:33 | 30.90635 | -82.65021 | 35179 ft | 492 kts | 354° |
| 2026-05-03 23:34 | 30.97465 | -82.64392 | 35135 ft | 493 kts | 354° |
| 2026-05-03 23:34 | 31.04297 | -82.63758 | 35185 ft | 493 kts | 355° |
| 2026-05-03 23:35 | 31.11117 | -82.63122 | 35134 ft | 491 kts | 355° |
| 2026-05-03 23:35 | 31.17890 | -82.62499 | 35137 ft | 491 kts | 355° |
| 2026-05-03 23:36 | 31.24707 | -82.61874 | 35139 ft | 492 kts | 355° |
| 2026-05-03 23:36 | 31.31598 | -82.61245 | 35162 ft | 501 kts | 355° |
| 2026-05-03 23:37 | 31.38571 | -82.60598 | 35118 ft | 503 kts | 355° |
| 2026-05-03 23:37 | 31.45556 | -82.59937 | 35111 ft | 504 kts | 355° |
| 2026-05-03 23:38 | 31.52496 | -82.59284 | 35109 ft | 502 kts | 355° |
| 2026-05-03 23:38 | 31.59377 | -82.58637 | 35139 ft | 493 kts | 355° |
| 2026-05-03 23:39 | 31.62819 | -82.58326 | 34942 ft | 501 kts | 355° |
| 2026-05-03 23:39 | 31.66310 | -82.58016 | 34715 ft | 505 kts | 356° |
| 2026-05-03 23:39 | 31.69812 | -82.57697 | 34479 ft | 505 kts | 356° |
| 2026-05-03 23:39 | 31.73309 | -82.57368 | 34245 ft | 503 kts | 356° |
| 2026-05-03 23:40 | 31.76791 | -82.57036 | 34002 ft | 501 kts | 356° |
| 2026-05-03 23:40 | 31.80212 | -82.56708 | 33734 ft | 499 kts | 356° |
| 2026-05-03 23:40 | 31.83664 | -82.56377 | 33467 ft | 497 kts | 356° |
| 2026-05-03 23:40 | 31.87103 | -82.56054 | 33238 ft | 495 kts | 356° |
| 2026-05-03 23:41 | 31.90519 | -82.55841 | 32971 ft | 486 kts | 349° |
| 2026-05-03 23:41 | 31.93818 | -82.56269 | 32713 ft | 470 kts | 339° |
| 2026-05-03 23:41 | 31.96894 | -82.57352 | 32458 ft | 455 kts | 328° |
| 2026-05-03 23:41 | 31.99675 | -82.58985 | 32202 ft | 441 kts | 319° |
| 2026-05-03 23:42 | 32.02119 | -82.61066 | 31947 ft | 428 kts | 310° |
| 2026-05-03 23:42 | 32.04367 | -82.63356 | 31702 ft | 426 kts | 310° |
| 2026-05-03 23:42 | 32.06602 | -82.65640 | 31454 ft | 425 kts | 310° |
| 2026-05-03 23:42 | 32.08830 | -82.67917 | 31208 ft | 423 kts | 310° |
| 2026-05-03 23:43 | 32.11050 | -82.70187 | 30965 ft | 422 kts | 310° |
| 2026-05-03 23:43 | 32.13236 | -82.72418 | 30728 ft | 421 kts | 310° |
| 2026-05-03 23:43 | 32.15444 | -82.74671 | 30514 ft | 419 kts | 311° |
| 2026-05-03 23:43 | 32.17644 | -82.76922 | 30276 ft | 418 kts | 311° |
| 2026-05-03 23:44 | 32.19833 | -82.79166 | 30032 ft | 416 kts | 311° |
| 2026-05-03 23:44 | 32.22017 | -82.81403 | 29749 ft | 415 kts | 311° |
| 2026-05-03 23:44 | 32.24192 | -82.83632 | 29471 ft | 413 kts | 311° |
| 2026-05-03 23:44 | 32.26359 | -82.85854 | 29195 ft | 412 kts | 311° |
| 2026-05-03 23:45 | 32.28517 | -82.88069 | 28923 ft | 410 kts | 311° |
| 2026-05-03 23:45 | 32.30664 | -82.90275 | 28652 ft | 408 kts | 311° |
| 2026-05-03 23:45 | 32.32800 | -82.92474 | 28400 ft | 406 kts | 311° |
| 2026-05-03 23:45 | 32.34927 | -82.94668 | 28118 ft | 405 kts | 311° |
| 2026-05-03 23:46 | 32.37044 | -82.96851 | 27855 ft | 403 kts | 312° |
| 2026-05-03 23:46 | 32.39158 | -82.99024 | 27589 ft | 402 kts | 312° |
| 2026-05-03 23:46 | 32.41240 | -83.01159 | 27340 ft | 400 kts | 312° |
| 2026-05-03 23:46 | 32.43339 | -83.03314 | 27119 ft | 399 kts | 313° |
| 2026-05-03 23:47 | 32.45429 | -83.05466 | 26861 ft | 398 kts | 313° |
| 2026-05-03 23:47 | 32.47512 | -83.07614 | 26604 ft | 396 kts | 313° |
| 2026-05-03 23:47 | 32.49588 | -83.09753 | 26360 ft | 395 kts | 313° |
| 2026-05-03 23:47 | 32.51656 | -83.11882 | 26113 ft | 393 kts | 313° |
| 2026-05-03 23:48 | 32.53709 | -83.13996 | 25745 ft | 389 kts | 313° |
| 2026-05-03 23:48 | 32.55740 | -83.16090 | 25261 ft | 385 kts | 314° |
| 2026-05-03 23:48 | 32.57755 | -83.18173 | 24765 ft | 383 kts | 314° |
| 2026-05-03 23:48 | 32.59753 | -83.20241 | 24291 ft | 380 kts | 314° |
| 2026-05-03 23:49 | 32.61731 | -83.22293 | 23836 ft | 377 kts | 314° |
| 2026-05-03 23:49 | 32.63669 | -83.24308 | 23351 ft | 373 kts | 314° |
| 2026-05-03 23:49 | 32.65609 | -83.26321 | 22906 ft | 368 kts | 314° |
| 2026-05-03 23:49 | 32.67522 | -83.28307 | 22471 ft | 363 kts | 314° |
| 2026-05-03 23:50 | 32.69408 | -83.30267 | 22049 ft | 358 kts | 315° |
| 2026-05-03 23:50 | 32.71269 | -83.32203 | 21657 ft | 354 kts | 315° |
| 2026-05-03 23:50 | 32.73112 | -83.34122 | 21222 ft | 350 kts | 315° |
| 2026-05-03 23:50 | 32.74935 | -83.36021 | 20803 ft | 347 kts | 315° |
| 2026-05-03 23:51 | 32.76741 | -83.37905 | 20377 ft | 344 kts | 315° |
| 2026-05-03 23:51 | 32.78534 | -83.39776 | 19948 ft | 342 kts | 315° |
| 2026-05-03 23:51 | 32.80312 | -83.41634 | 19528 ft | 339 kts | 315° |
| 2026-05-03 23:51 | 32.82081 | -83.43484 | 19100 ft | 338 kts | 315° |
| 2026-05-03 23:52 | 32.83839 | -83.45323 | 18676 ft | 336 kts | 315° |
| 2026-05-03 23:52 | 32.85590 | -83.47159 | 18228 ft | 335 kts | 315° |
| 2026-05-03 23:52 | 32.87316 | -83.48963 | 17688 ft | 335 kts | 315° |
| 2026-05-03 23:52 | 32.89059 | -83.50785 | 17257 ft | 332 kts | 315° |
| 2026-05-03 23:53 | 32.90786 | -83.52594 | 16841 ft | 330 kts | 316° |
| 2026-05-03 23:53 | 32.92502 | -83.54387 | 16427 ft | 327 kts | 316° |
| 2026-05-03 23:53 | 32.94205 | -83.56169 | 16016 ft | 325 kts | 316° |
| 2026-05-03 23:53 | 32.95900 | -83.57943 | 15608 ft | 323 kts | 316° |
| 2026-05-03 23:54 | 32.97583 | -83.59703 | 15205 ft | 321 kts | 316° |
| 2026-05-03 23:54 | 32.99261 | -83.61454 | 14801 ft | 320 kts | 316° |
| 2026-05-03 23:54 | 33.00930 | -83.63198 | 14401 ft | 319 kts | 317° |
| 2026-05-03 23:54 | 33.02591 | -83.64941 | 13995 ft | 318 kts | 317° |
| 2026-05-03 23:55 | 33.04224 | -83.66656 | 13566 ft | 317 kts | 317° |
| 2026-05-03 23:55 | 33.05871 | -83.68388 | 13148 ft | 314 kts | 317° |
| 2026-05-03 23:55 | 33.07504 | -83.70106 | 12734 ft | 312 kts | 317° |
| 2026-05-03 23:55 | 33.09121 | -83.71804 | 12490 ft | 305 kts | 317° |
| 2026-05-03 23:56 | 33.10683 | -83.73447 | 12344 ft | 294 kts | 317° |
| 2026-05-03 23:56 | 33.12205 | -83.75046 | 12074 ft | 289 kts | 317° |
| 2026-05-03 23:56 | 33.13703 | -83.76624 | 11827 ft | 286 kts | 317° |
| 2026-05-03 23:56 | 33.15190 | -83.78192 | 11579 ft | 285 kts | 317° |
| 2026-05-03 23:57 | 33.16669 | -83.79755 | 11325 ft | 283 kts | 317° |
| 2026-05-03 23:57 | 33.18141 | -83.81313 | 11060 ft | 282 kts | 317° |
| 2026-05-03 23:57 | 33.19578 | -83.82853 | 10707 ft | 281 kts | 316° |
| 2026-05-03 23:57 | 33.20985 | -83.84467 | 10323 ft | 280 kts | 315° |
| 2026-05-03 23:58 | 33.22359 | -83.86108 | 9957 ft | 279 kts | 314° |
| 2026-05-03 23:58 | 33.23719 | -83.87757 | 9551 ft | 278 kts | 314° |
| 2026-05-03 23:58 | 33.25069 | -83.89395 | 9175 ft | 276 kts | 314° |
| 2026-05-03 23:58 | 33.26415 | -83.91018 | 8805 ft | 274 kts | 315° |
| 2026-05-03 23:59 | 33.27758 | -83.92629 | 8438 ft | 273 kts | 315° |
| 2026-05-03 23:59 | 33.29097 | -83.94231 | 8083 ft | 272 kts | 315° |
| 2026-05-03 23:59 | 33.30427 | -83.95821 | 8000 ft | 270 kts | 315° |
| 2026-05-03 23:59 | 33.31750 | -83.97405 | 7679 ft | 269 kts | 315° |
| 2026-05-04 00:00 | 33.33054 | -83.98971 | 7283 ft | 269 kts | 315° |
| 2026-05-04 00:00 | 33.34368 | -84.00551 | 6920 ft | 267 kts | 315° |
| 2026-05-04 00:00 | 33.35817 | -84.01925 | 6548 ft | 266 kts | 330° |
| 2026-05-04 00:00 | 33.37531 | -84.02736 | 6134 ft | 266 kts | 347° |
| 2026-05-04 00:01 | 33.39367 | -84.02941 | 5726 ft | 266 kts | 358° |
| 2026-05-04 00:01 | 33.41214 | -84.02963 | 5321 ft | 265 kts | 358° |
| 2026-05-04 00:01 | 33.43054 | -84.02984 | 5020 ft | 263 kts | 358° |
| 2026-05-04 00:01 | 33.44896 | -84.03004 | 4997 ft | 265 kts | 358° |
| 2026-05-04 00:02 | 33.46745 | -84.03040 | 4997 ft | 266 kts | 357° |
| 2026-05-04 00:02 | 33.48598 | -84.03098 | 4998 ft | 267 kts | 357° |
| 2026-05-04 00:02 | 33.50452 | -84.03157 | 4997 ft | 266 kts | 357° |
| 2026-05-04 00:02 | 33.52304 | -84.03214 | 4996 ft | 266 kts | 357° |
| 2026-05-04 00:03 | 33.54159 | -84.03269 | 5002 ft | 266 kts | 357° |
| 2026-05-04 00:03 | 33.56012 | -84.03320 | 4998 ft | 267 kts | 357° |
| 2026-05-04 00:03 | 33.57851 | -84.03528 | 4994 ft | 265 kts | 342° |
| 2026-05-04 00:03 | 33.59490 | -84.04425 | 4995 ft | 260 kts | 323° |
| 2026-05-04 00:04 | 33.60763 | -84.05848 | 4988 ft | 242 kts | 307° |
| 2026-05-04 00:04 | 33.61598 | -84.07561 | 4993 ft | 237 kts | 291° |
| 2026-05-04 00:04 | 33.61992 | -84.09471 | 4998 ft | 236 kts | 275° |
| 2026-05-04 00:04 | 33.62015 | -84.11442 | 5002 ft | 236 kts | 270° |
| 2026-05-04 00:05 | 33.62010 | -84.13344 | 5027 ft | 221 kts | 270° |
| 2026-05-04 00:05 | 33.62010 | -84.15160 | 4960 ft | 216 kts | 270° |
| 2026-05-04 00:05 | 33.62014 | -84.16951 | 4968 ft | 215 kts | 270° |
| 2026-05-04 00:05 | 33.62018 | -84.18751 | 4746 ft | 215 kts | 270° |
| 2026-05-04 00:06 | 33.62014 | -84.20507 | 4496 ft | 212 kts | 270° |
| 2026-05-04 00:06 | 33.62014 | -84.22235 | 4244 ft | 201 kts | 270° |
| 2026-05-04 00:06 | 33.62017 | -84.23878 | 3921 ft | 194 kts | 270° |
| 2026-05-04 00:06 | 33.62020 | -84.25461 | 3663 ft | 186 kts | 270° |
| 2026-05-04 00:07 | 33.62022 | -84.26976 | 3430 ft | 177 kts | 271° |
| 2026-05-04 00:07 | 33.62027 | -84.28433 | 3199 ft | 172 kts | 270° |
| 2026-05-04 00:07 | 33.62027 | -84.29839 | 2969 ft | 166 kts | 271° |
| 2026-05-04 00:07 | 33.62024 | -84.31200 | 2761 ft | 159 kts | 271° |
| 2026-05-04 00:08 | 33.62021 | -84.32501 | 2591 ft | 154 kts | 271° |
| 2026-05-04 00:08 | 33.62025 | -84.33764 | 2352 ft | 153 kts | 271° |
| 2026-05-04 00:08 | 33.62029 | -84.35038 | 2145 ft | 153 kts | 271° |
| 2026-05-04 00:08 | 33.62035 | -84.36307 | 1935 ft | 153 kts | 271° |
| 2026-05-04 00:09 | 33.62037 | -84.37580 | 1740 ft | 152 kts | 270° |
| 2026-05-04 00:09 | 33.62032 | -84.38848 | 1541 ft | 152 kts | 270° |
| 2026-05-04 00:09 | 33.62031 | -84.40103 | 1323 ft | 151 kts | 270° |
| 2026-05-04 00:09 | 33.62030 | -84.41359 | 1141 ft | 150 kts | 271° |
| 2026-05-04 00:10 | 33.62028 | -84.42597 | 1011 ft | 142 kts | 270° |
| 2026-05-04 00:10 | 33.62029 | -84.43603 | 1007 ft | 93 kts | 270° |
| 2026-05-04 00:10 | 33.62028 | -84.44172 | 1007 ft | 43 kts | 270° |
| 2026-05-04 00:10 | 33.62028 | -84.44375 | 1007 ft | 19 kts | 270° |
| 2026-05-04 00:11 | 33.62029 | -84.44543 | 1007 ft | 13 kts | 270° |
| 2026-05-04 00:11 | 33.62042 | -84.44633 | 1007 ft | 9 kts | 300° |
| 2026-05-04 00:11 | 33.62092 | -84.44660 | 1006 ft | 8 kts | 359° |
| 2026-05-04 00:11 | 33.62134 | -84.44625 | 1006 ft | 8 kts | 66° |
| 2026-05-04 00:12 | 33.62138 | -84.44522 | 1006 ft | 20 kts | 90° |
| 2026-05-04 00:12 | 33.62152 | -84.44352 | 1007 ft | 19 kts | 70° |
| 2026-05-04 00:12 | 33.62194 | -84.44233 | 1006 ft | 18 kts | 71° |
| 2026-05-04 00:12 | 33.62212 | -84.44076 | 1006 ft | 19 kts | 90° |
| 2026-05-04 00:13 | 33.62211 | -84.43915 | 1006 ft | 21 kts | 90° |
| 2026-05-04 00:13 | 33.62211 | -84.43713 | 1006 ft | 25 kts | 90° |
| 2026-05-04 00:13 | 33.62212 | -84.43513 | 1006 ft | 23 kts | 90° |
| 2026-05-04 00:13 | 33.62228 | -84.43418 | 1006 ft | 9 kts | 51° |
| 2026-05-04 00:14 | 33.62277 | -84.43399 | 1006 ft | 7 kts | 1° |
| 2026-05-04 00:14 | 33.62327 | -84.43399 | 1006 ft | 8 kts | 1° |
| 2026-05-04 00:14 | 33.62390 | -84.43398 | 1006 ft | 10 kts | 0° |
| 2026-05-04 00:14 | 33.62461 | -84.43397 | 1006 ft | 12 kts | 0° |
| 2026-05-04 00:15 | 33.62585 | -84.43397 | 1006 ft | 23 kts | 0° |
| 2026-05-04 00:15 | 33.62743 | -84.43397 | 1006 ft | 22 kts | 360° |
| 2026-05-04 00:15 | 33.62898 | -84.43397 | 1006 ft | 15 kts | 359° |
| 2026-05-04 00:15 | 33.62995 | -84.43401 | 1007 ft | 13 kts | 355° |
| 2026-05-04 00:16 | 33.63068 | -84.43414 | 1007 ft | 6 kts | 349° |
| 2026-05-04 00:16 | 33.63075 | -84.43417 | 1007 ft | 0 kts | 342° |
| 2026-05-04 00:17 | 33.63077 | -84.43418 | 1007 ft | 2 kts | 342° |
| 2026-05-04 00:17 | 33.63176 | -84.43425 | 1007 ft | 21 kts | 360° |
| 2026-05-04 00:17 | 33.63303 | -84.43427 | 1006 ft | 14 kts | 359° |
| 2026-05-04 00:17 | 33.63359 | -84.43466 | 1007 ft | 9 kts | 286° |
| 2026-05-04 00:18 | 33.63361 | -84.43542 | 1006 ft | 10 kts | 270° |
| 2026-05-04 00:18 | 33.63361 | -84.43562 | 1006 ft | 0 kts | 270° |
| 2026-05-04 00:18 | 33.63362 | -84.43570 | 1006 ft | 5 kts | 278° |
| 2026-05-04 00:18 | 33.63427 | -84.43605 | 1005 ft | 15 kts | 357° |
| 2026-05-04 00:19 | 33.63493 | -84.43607 | 1005 ft | 5 kts | 359° |
| 2026-05-04 00:19 | 33.63519 | -84.43607 | 1006 ft | 3 kts | 359° |
| 2026-05-04 00:19 | 33.63561 | -84.43613 | 1006 ft | 12 kts | 335° |
| 2026-05-04 00:19 | 33.63581 | -84.43713 | 1006 ft | 13 kts | 280° |
| 2026-05-04 00:20 | 33.63650 | -84.43763 | 1006 ft | 12 kts | 345° |
| 2026-05-04 00:20 | 33.63752 | -84.43786 | 1006 ft | 17 kts | 358° |
| 2026-05-04 00:20 | 33.63838 | -84.43787 | 1006 ft | 12 kts | 360° |
| 2026-05-04 00:20 | 33.63940 | -84.43787 | 1006 ft | 18 kts | 360° |
| 2026-05-04 00:21 | 33.64063 | -84.43788 | 1006 ft | 13 kts | 360° |
| 2026-05-04 00:21 | 33.64148 | -84.43789 | 1006 ft | 12 kts | 360° |
| 2026-05-04 00:21 | 33.64227 | -84.43789 | 1006 ft | 11 kts | 359° |
| 2026-05-04 00:21 | 33.64254 | -84.43795 | 1006 ft | 4 kts | 330° |
| 2026-05-04 00:22 | 33.64264 | -84.43826 | 1006 ft | 5 kts | 276° |
| 2026-05-04 00:22 | 33.64265 | -84.43862 | 1006 ft | 4 kts | 272° |
| 2026-05-04 00:22 | 33.64265 | -84.43872 | 1006 ft | 0 kts | 269° |